Catàleg de serveis del Meteocat
Campanya meteocatpedra

Dades de l'estació automàtica Massoteres

?
?
Resum diari 22:30 TU
Dades diàries de l'estació meteorològica
Temperatura mitjana 6.1 °C
Temperatura màxima 10.2 °C 13:55 TU
Temperatura mínima 2.0 °C 5:33 TU
Humitat relativa mitjana 87%
Precipitació acumulada 0.0 mm
Ratxa màxima del vent (10 m) 33.5 km/h - 250º 14:57 TU
Irradiació solar global 6.7 MJ/m2

El tram horari està expressat en Temps Universal (TU). Cal sumar una hora en horari d'hivern i dues en horari d'estiu per passar a l'hora oficial.

Massoteres

Metadades estació meteorol´gica
Municipi Massoteres
Comarca Segarra
Altitud 513 m
Data alta 17.05.2017
Estat actual Operativa
Dades de període
Període
TU
TM
°C
TX
°C
TN
°C
HRM
%
PPT
mm
VVM (10 m)
km/h
DVM (10 m)
graus
VVX (10 m)
km/h
RS
W/m2
00:00 - 00:30 5.0 5.2 4.8 91 0.0 13.0 209 16.9 0
00:30 - 01:00 4.7 4.8 4.6 92 0.0 11.9 205 15.1 0
01:00 - 01:30 4.5 4.7 4.3 93 0.0 12.6 220 16.9 0
01:30 - 02:00 4.2 4.5 4.1 94 0.0 11.2 225 15.1 0
02:00 - 02:30 4.3 4.7 4.1 94 0.0 9.7 222 14.8 0
02:30 - 03:00 4.0 4.2 3.9 95 0.0 5.0 229 8.3 0
03:00 - 03:30 3.3 4.0 2.8 96 0.0 4.3 316 7.9 0
03:30 - 04:00 2.6 2.9 2.3 99 0.0 6.1 58 9.7 0
04:00 - 04:30 2.6 3.0 2.1 99 0.0 6.8 72 10.1 0
04:30 - 05:00 3.5 3.9 2.4 98 0.0 6.8 77 9.0 0
05:00 - 05:30 2.6 3.8 2.0 97 0.0 7.2 64 11.2 0
05:30 - 06:00 2.4 3.0 2.0 99 0.0 8.3 62 11.9 0
06:00 - 06:30 3.5 4.3 3.0 98 0.0 10.1 69 14.0 0
06:30 - 07:00 4.7 4.9 4.4 94 0.0 11.2 111 15.1 1
07:00 - 07:30 4.9 5.1 4.7 93 0.0 8.6 101 13.7 8
07:30 - 08:00 5.1 5.5 4.8 93 0.0 7.2 76 12.2 28
08:00 - 08:30 5.5 5.6 5.3 91 0.0 10.1 78 14.8 44
08:30 - 09:00 6.1 6.4 5.4 90 0.0 9.0 65 13.0 168
09:00 - 09:30 6.5 6.6 6.2 87 0.0 6.8 64 12.2 86
09:30 - 10:00 6.6 6.7 6.5 86 0.0 6.5 65 9.0 73
10:00 - 10:30 6.7 7.0 6.6 87 0.0 5.8 38 8.3 118
10:30 - 11:00 7.3 7.7 7.0 84 0.0 4.0 56 6.8 185
11:00 - 11:30 8.3 8.7 7.8 79 0.0 2.9 232 7.6 325
11:30 - 12:00 9.0 9.4 8.5 78 0.0 6.5 230 15.5 478
12:00 - 12:30 9.2 9.6 9.0 79 0.0 10.8 235 16.6 386
12:30 - 13:00 9.0 9.5 8.6 79 0.0 15.1 232 22.3 308
13:00 - 13:30 9.3 9.8 8.9 78 0.0 15.1 230 21.2 402
13:30 - 14:00 9.6 10.2 9.3 76 0.0 15.8 224 22.7 391
14:00 - 14:30 9.7 10.0 9.3 76 0.0 19.8 235 27.0 308
14:30 - 15:00 9.7 9.9 9.5 75 0.0 22.3 242 33.5 229
15:00 - 15:30 9.3 9.5 9.1 78 0.0 20.2 243 28.1 143
15:30 - 16:00 8.9 9.2 8.7 81 0.0 17.6 237 25.9 72
16:00 - 16:30 8.6 8.8 8.2 83 0.0 15.1 232 24.8 31
16:30 - 17:00 7.7 8.2 7.0 87 0.0 10.4 224 14.0 0
17:00 - 17:30 6.9 7.4 6.7 92 0.0 12.6 200 19.1 0
17:30 - 18:00 7.2 7.3 7.1 92 0.0 14.0 208 19.1 0
18:00 - 18:30 7.4 7.9 6.8 87 0.0 15.5 212 23.4 0
18:30 - 19:00 7.0 7.3 6.8 81 0.0 12.2 204 18.4 0
19:00 - 19:30 6.2 6.8 6.0 81 0.0 13.3 214 18.0 0
19:30 - 20:00 6.0 6.1 5.7 80 0.0 11.9 206 17.3 0
20:00 - 20:30 5.7 6.0 5.2 79 0.0 8.3 200 15.1 0
20:30 - 21:00 5.1 5.5 4.2 81 0.0 6.8 203 11.2 0
21:00 - 21:30 4.7 5.2 4.2 83 0.0 10.1 192 15.1 0
21:30 - 22:00 4.8 5.1 4.4 82 0.0 9.4 206 14.0 0
22:00 - 22:30 4.7 4.9 4.4 83 0.0 10.4 193 13.3 0
22:30 - 23:00 4.5 4.6 4.2 84 0.0 7.9 190 11.9 0

Les dades en taronja només han passat un control de qualitat automàtic. Resta pendent la seva validació definitiva.